createdAt,value
2023-05-12T00:01:55.368Z,21.42
2023-05-12T00:04:22.126Z,21.52
2023-05-12T00:06:48.757Z,21.60
2023-05-12T00:09:15.289Z,22.20
2023-05-12T00:11:41.925Z,20.20
2023-05-12T00:14:09.194Z,20.58
2023-05-12T00:16:36.033Z,22.58
2023-05-12T00:19:02.824Z,21.35
2023-05-12T00:21:29.456Z,23.30
2023-05-12T00:23:56.457Z,20.98
2023-05-12T00:26:23.129Z,21.83
2023-05-12T00:28:49.681Z,19.95
2023-05-12T00:31:16.269Z,22.45
2023-05-12T00:33:42.965Z,24.52
2023-05-12T00:36:09.597Z,23.00
2023-05-12T00:38:37.405Z,21.55
2023-05-12T00:41:04.777Z,20.25
2023-05-12T00:43:31.981Z,21.83
2023-05-12T00:45:58.867Z,20.00
2023-05-12T00:48:25.962Z,20.45
2023-05-12T00:50:52.556Z,20.10
2023-05-12T00:53:19.206Z,19.60
2023-05-12T00:55:45.930Z,20.48
2023-05-12T00:58:12.527Z,19.90
2023-05-12T01:00:39.205Z,21.08
2023-05-12T01:03:06.064Z,20.50
2023-05-12T01:05:39.017Z,20.58
2023-05-12T01:08:06.394Z,21.98
2023-05-12T01:10:33.124Z,20.17
2023-05-12T01:12:59.681Z,19.40
2023-05-12T01:15:26.317Z,20.83
2023-05-12T01:17:57.998Z,21.30
2023-05-12T01:20:26.029Z,22.70
2023-05-12T01:22:53.113Z,22.65
2023-05-12T01:25:22.746Z,21.17
2023-05-12T01:27:49.907Z,20.90
2023-05-12T01:30:18.147Z,20.60
2023-05-12T01:32:45.314Z,19.58
2023-05-12T01:35:11.951Z,20.15
2023-05-12T01:37:38.524Z,21.98
2023-05-12T01:40:05.677Z,21.08
2023-05-12T01:42:32.315Z,20.35
2023-05-12T01:44:58.871Z,18.70
2023-05-12T01:47:25.758Z,18.95
2023-05-12T01:49:54.355Z,19.27
2023-05-12T01:52:21.045Z,20.75
2023-05-12T01:54:47.597Z,18.08
2023-05-12T01:57:14.163Z,17.63
2023-05-12T01:59:40.743Z,18.13
2023-05-12T02:02:07.405Z,17.13
2023-05-12T02:04:34.702Z,16.38
2023-05-12T02:07:01.966Z,16.60
2023-05-12T02:09:28.614Z,18.38
2023-05-12T02:11:55.823Z,16.15
2023-05-12T02:14:22.429Z,15.25
2023-05-12T02:16:52.672Z,15.60
2023-05-12T02:19:20.334Z,14.75
2023-05-12T02:21:47.647Z,15.07
2023-05-12T02:24:16.544Z,14.68
2023-05-12T02:26:43.202Z,14.32
2023-05-12T02:29:10.966Z,14.05
2023-05-12T02:31:37.643Z,15.27
2023-05-12T02:34:06.457Z,14.98
2023-05-12T02:36:33.642Z,14.30
2023-05-12T02:39:00.363Z,14.57
2023-05-12T02:41:26.959Z,14.40
2023-05-12T02:43:53.775Z,12.88
2023-05-12T02:46:20.491Z,14.55
2023-05-12T02:48:47.305Z,14.30
2023-05-12T02:51:13.959Z,14.00
2023-05-12T02:53:40.589Z,16.83
2023-05-12T02:56:07.917Z,16.63
2023-05-12T02:58:34.797Z,14.60
2023-05-12T03:01:09.971Z,19.75
2023-05-12T03:03:38.053Z,18.90
2023-05-12T03:06:05.302Z,19.15
2023-05-12T03:08:32.059Z,16.38
2023-05-12T03:10:58.990Z,16.80
2023-05-12T03:13:25.599Z,16.65
2023-05-12T03:15:52.182Z,18.45
2023-05-12T03:18:18.775Z,17.70
2023-05-12T03:20:45.486Z,17.48
2023-05-12T03:23:12.060Z,15.73
2023-05-12T03:25:38.604Z,18.23
2023-05-12T03:28:05.902Z,18.17
2023-05-12T03:30:33.283Z,16.10
2023-05-12T03:33:00.036Z,15.63
2023-05-12T03:35:27.030Z,15.75
2023-05-12T03:37:53.709Z,13.95
2023-05-12T03:40:20.605Z,13.35
2023-05-12T03:42:47.365Z,10.85
2023-05-12T03:45:13.964Z,11.23
2023-05-12T03:47:40.992Z,10.07
2023-05-12T03:50:08.193Z,10.40
2023-05-12T03:52:34.878Z,9.23
2023-05-12T03:55:01.491Z,9.43
2023-05-12T03:57:28.577Z,9.70
2023-05-12T03:59:55.197Z,9.07
2023-05-12T04:02:21.749Z,8.68
2023-05-12T04:04:48.664Z,7.85
2023-05-12T04:07:15.228Z,9.00
2023-05-12T04:09:41.790Z,8.05
2023-05-12T04:12:08.456Z,7.38
2023-05-12T04:14:42.189Z,7.95
2023-05-12T04:17:10.027Z,8.70
2023-05-12T04:19:36.644Z,6.97
2023-05-12T04:22:03.322Z,7.30
2023-05-12T04:24:31.331Z,7.28
2023-05-12T04:26:58.049Z,7.38
2023-05-12T04:29:24.608Z,6.85
2023-05-12T04:31:51.204Z,7.00
2023-05-12T04:34:17.803Z,6.40
2023-05-12T04:36:44.387Z,6.88
2023-05-12T04:39:10.951Z,6.45
2023-05-12T04:41:37.533Z,5.55
2023-05-12T04:44:04.274Z,5.35
2023-05-12T04:46:30.946Z,5.90
2023-05-12T04:48:57.608Z,5.25
2023-05-12T04:51:24.346Z,5.75
2023-05-12T04:53:50.948Z,5.82
2023-05-12T04:56:17.677Z,6.47
2023-05-12T04:58:44.311Z,5.75
2023-05-12T05:01:12.499Z,5.47
2023-05-12T05:03:40.055Z,5.18
2023-05-12T05:06:07.029Z,5.30
2023-05-12T05:08:33.650Z,4.65
2023-05-12T05:11:00.389Z,4.82
2023-05-12T05:13:26.951Z,4.90
2023-05-12T05:15:55.733Z,4.72
2023-05-12T05:18:24.252Z,5.22
2023-05-12T05:20:57.890Z,4.53
2023-05-12T05:23:26.102Z,4.60
2023-05-12T05:25:53.010Z,5.13
2023-05-12T05:28:19.953Z,4.88
2023-05-12T05:30:46.601Z,4.75
2023-05-12T05:33:13.452Z,4.43
2023-05-12T05:35:40.667Z,3.90
2023-05-12T05:38:07.305Z,5.22
2023-05-12T05:40:41.648Z,5.50
2023-05-12T05:43:18.641Z,5.88
2023-05-12T05:45:45.336Z,6.60
2023-05-12T05:48:12.279Z,6.72
2023-05-12T05:50:38.929Z,7.57
2023-05-12T05:53:06.181Z,7.45
2023-05-12T05:55:32.794Z,10.77
2023-05-12T05:57:59.620Z,10.05
2023-05-12T06:00:26.223Z,9.15
2023-05-12T06:02:52.875Z,9.95
2023-05-12T06:05:20.037Z,9.77
2023-05-12T06:07:46.816Z,9.40
2023-05-12T06:10:13.446Z,8.65
2023-05-12T06:12:43.307Z,7.95
2023-05-12T06:15:10.938Z,8.10
2023-05-12T06:17:37.829Z,8.10
2023-05-12T06:20:05.507Z,7.20
2023-05-12T06:22:32.335Z,6.83
2023-05-12T06:24:58.923Z,6.18
2023-05-12T06:27:25.563Z,7.45
2023-05-12T06:29:52.389Z,8.70
2023-05-12T06:32:19.257Z,7.95
2023-05-12T06:34:45.878Z,8.48
2023-05-12T06:37:12.492Z,11.50
2023-05-12T06:39:39.200Z,13.23
2023-05-12T06:42:06.195Z,13.68
2023-05-12T06:44:32.789Z,14.18
2023-05-12T06:46:59.433Z,13.32
2023-05-12T06:49:25.956Z,13.73
2023-05-12T06:51:52.521Z,11.75
2023-05-12T06:54:19.109Z,12.70
2023-05-12T06:56:45.941Z,14.77
2023-05-12T06:59:12.666Z,13.32
2023-05-12T07:01:39.353Z,12.38
2023-05-12T07:04:06.082Z,12.10
2023-05-12T07:06:34.514Z,11.73
2023-05-12T07:09:01.134Z,13.45
2023-05-12T07:11:27.696Z,11.38
2023-05-12T07:13:54.264Z,11.73
2023-05-12T07:16:21.067Z,12.00
2023-05-12T07:18:49.600Z,12.55
2023-05-12T07:23:42.965Z,11.75
2023-05-12T07:26:10.279Z,11.18
2023-05-12T07:28:38.082Z,10.88
2023-05-12T07:31:07.264Z,10.93
2023-05-12T07:33:34.972Z,11.63
2023-05-12T07:36:02.213Z,11.40
2023-05-12T07:38:29.101Z,10.52
2023-05-12T07:40:55.719Z,10.95
2023-05-12T07:43:22.292Z,9.45
2023-05-12T07:45:48.873Z,9.02
2023-05-12T07:48:15.580Z,9.32
2023-05-12T07:50:42.444Z,9.27
2023-05-12T07:53:09.071Z,8.48
2023-05-12T07:55:35.776Z,8.32
2023-05-12T07:58:02.616Z,8.70
2023-05-12T08:00:29.307Z,8.15
2023-05-12T08:02:56.202Z,8.65
2023-05-12T08:05:22.890Z,10.18
2023-05-12T08:07:49.513Z,9.73
2023-05-12T08:10:16.697Z,9.65
2023-05-12T08:12:43.826Z,10.02
2023-05-12T08:15:10.627Z,9.60
2023-05-12T08:17:37.213Z,10.20
2023-05-12T08:20:05.197Z,8.50
2023-05-12T08:22:31.891Z,8.95
2023-05-12T08:24:58.488Z,7.57
2023-05-12T08:27:25.153Z,10.52
2023-05-12T08:29:51.783Z,9.35
2023-05-12T08:32:18.377Z,8.30
2023-05-12T08:34:45.002Z,8.98
2023-05-12T08:37:11.772Z,8.48
2023-05-12T08:39:38.379Z,7.05
2023-05-12T08:42:19.221Z,6.30
2023-05-12T08:44:46.790Z,7.32
2023-05-12T08:47:14.213Z,8.20
2023-05-12T08:49:42.794Z,7.70
2023-05-12T08:54:48.736Z,8.10
2023-05-12T08:57:22.250Z,11.00
2023-05-12T08:59:49.152Z,10.90
2023-05-12T09:02:17.576Z,10.63
2023-05-12T09:07:11.250Z,12.20
2023-05-12T09:09:40.339Z,11.27
2023-05-12T09:12:11.726Z,11.80
2023-05-12T09:14:39.609Z,14.55
2023-05-12T09:17:07.082Z,12.23
2023-05-12T09:19:34.483Z,12.98
2023-05-12T09:22:01.166Z,11.38
2023-05-12T09:24:38.585Z,13.07
2023-05-12T09:27:07.099Z,14.63
2023-05-12T09:29:37.474Z,13.20
2023-05-12T09:32:11.892Z,14.23
2023-05-12T09:34:41.333Z,14.65
2023-05-12T09:37:08.315Z,12.55
2023-05-12T09:39:36.233Z,13.55
2023-05-12T09:42:02.882Z,12.23
2023-05-12T09:44:30.061Z,11.68
2023-05-12T09:47:06.309Z,13.80
2023-05-12T09:49:32.925Z,11.40
2023-05-12T09:51:59.763Z,11.40
2023-05-12T09:54:30.489Z,11.40
2023-05-12T09:57:08.853Z,13.02
2023-05-12T10:02:05.984Z,12.80
2023-05-12T10:04:45.624Z,9.82
2023-05-12T10:07:13.700Z,8.95
2023-05-12T10:09:42.471Z,7.95
2023-05-12T10:12:09.499Z,6.75
2023-05-12T10:14:37.357Z,10.00
2023-05-12T10:17:05.550Z,10.00
2023-05-12T10:19:32.951Z,7.38
2023-05-12T10:22:00.713Z,7.72
2023-05-12T10:24:28.129Z,9.73
2023-05-12T10:26:59.698Z,9.70
2023-05-12T10:29:30.572Z,7.97
2023-05-12T10:31:58.174Z,8.60
2023-05-12T10:34:30.769Z,7.47
2023-05-12T10:36:58.672Z,8.48
2023-05-12T10:39:33.053Z,5.95
2023-05-12T10:42:09.188Z,6.20
2023-05-12T10:44:36.542Z,6.30
2023-05-12T10:47:13.781Z,8.18
2023-05-12T10:49:41.818Z,8.85
2023-05-12T10:52:11.230Z,7.38
2023-05-12T10:54:45.796Z,7.88
2023-05-12T10:57:17.054Z,7.47
2023-05-12T10:59:52.887Z,5.68
2023-05-12T11:02:27.505Z,5.57
2023-05-12T11:05:02.183Z,5.15
2023-05-12T11:07:32.884Z,6.50
2023-05-12T11:10:02.578Z,5.80
2023-05-12T11:12:38.173Z,4.90
2023-05-12T11:15:06.157Z,5.57
2023-05-12T11:17:33.175Z,5.57
2023-05-12T11:20:01.186Z,5.97
2023-05-12T11:22:28.134Z,5.20
2023-05-12T11:24:55.124Z,5.10
2023-05-12T11:27:23.464Z,4.85
2023-05-12T11:29:58.587Z,4.03
2023-05-12T11:32:25.263Z,3.95
2023-05-12T11:34:51.976Z,3.75
2023-05-12T11:37:21.138Z,3.75
2023-05-12T11:39:48.180Z,3.45
2023-05-12T11:42:16.285Z,3.00
2023-05-12T11:44:49.620Z,3.13
2023-05-12T11:47:17.197Z,3.53
2023-05-12T11:49:51.927Z,3.50
2023-05-12T11:52:20.072Z,3.50
2023-05-12T11:57:28.736Z,3.90
2023-05-12T12:00:01.000Z,3.53
2023-05-12T12:02:28.336Z,3.50
2023-05-12T12:04:55.191Z,3.67
2023-05-12T12:07:32.612Z,3.30
2023-05-12T12:09:59.633Z,3.83
2023-05-12T12:12:26.200Z,4.25
2023-05-12T12:14:52.837Z,3.63
2023-05-12T12:17:19.393Z,3.58
2023-05-12T12:19:47.834Z,3.67
2023-05-12T12:22:14.545Z,4.28
2023-05-12T12:24:41.182Z,3.53
2023-05-12T12:27:07.877Z,3.00
2023-05-12T12:29:34.736Z,4.00
2023-05-12T12:32:01.336Z,4.88
2023-05-12T12:34:28.333Z,3.40
2023-05-12T12:36:54.957Z,3.28
2023-05-12T12:39:21.870Z,3.25
2023-05-12T12:41:48.482Z,3.03
2023-05-12T12:44:15.809Z,3.40
2023-05-12T12:46:42.415Z,3.10
2023-05-12T12:49:09.120Z,3.10
2023-05-12T12:51:45.089Z,3.17
2023-05-12T12:54:13.199Z,2.97
2023-05-12T12:56:39.755Z,3.03
2023-05-12T12:59:06.799Z,3.35
2023-05-12T13:01:34.064Z,2.97
2023-05-12T13:04:01.183Z,3.10
2023-05-12T13:06:29.282Z,3.00
2023-05-12T13:08:56.514Z,2.85
2023-05-12T13:11:23.175Z,3.15
2023-05-12T13:13:49.774Z,2.30
2023-05-12T13:16:16.673Z,2.65
2023-05-12T13:18:43.848Z,2.72
2023-05-12T13:21:10.483Z,3.15
2023-05-12T13:23:37.204Z,3.17
2023-05-12T13:26:03.925Z,3.03
2023-05-12T13:28:30.920Z,3.40
2023-05-12T13:30:58.089Z,2.88
2023-05-12T13:33:25.186Z,2.70
2023-05-12T13:35:51.798Z,2.55
2023-05-12T13:38:19.895Z,3.08
2023-05-12T13:40:46.676Z,2.55
2023-05-12T13:43:13.453Z,2.70
2023-05-12T13:45:40.122Z,2.90
2023-05-12T13:48:06.963Z,3.00
2023-05-12T13:50:33.847Z,2.70
2023-05-12T13:53:00.912Z,3.00
2023-05-12T13:55:27.591Z,3.13
2023-05-12T13:57:54.276Z,3.00
2023-05-12T14:00:21.595Z,2.78
2023-05-12T14:02:48.334Z,2.55
2023-05-12T14:05:15.050Z,3.67
2023-05-12T14:07:42.678Z,3.28
2023-05-12T14:10:10.183Z,3.42
2023-05-12T14:12:41.268Z,3.30
2023-05-12T14:15:21.862Z,3.10
2023-05-12T14:17:55.370Z,3.40
2023-05-12T14:20:22.133Z,3.58
2023-05-12T14:22:48.683Z,3.15
2023-05-12T14:25:16.349Z,3.15
2023-05-12T14:27:43.036Z,3.13
2023-05-12T14:30:11.137Z,2.80
2023-05-12T14:32:37.944Z,3.20
2023-05-12T14:35:05.415Z,2.88
2023-05-12T14:37:33.551Z,3.13
2023-05-12T14:40:00.193Z,3.00
2023-05-12T14:42:29.425Z,3.30
2023-05-12T14:44:56.518Z,3.35
2023-05-12T14:47:23.341Z,3.30
2023-05-12T14:49:50.362Z,3.45
2023-05-12T14:52:17.081Z,3.03
2023-05-12T14:54:44.313Z,3.13
2023-05-12T14:57:11.014Z,2.88
2023-05-12T14:59:38.709Z,2.92
2023-05-12T15:02:05.634Z,3.00
2023-05-12T15:04:32.292Z,3.10
2023-05-12T15:06:58.974Z,3.00
2023-05-12T15:09:25.562Z,3.20
2023-05-12T15:11:52.639Z,3.20
2023-05-12T15:14:19.201Z,3.00
2023-05-12T15:16:46.211Z,3.10
2023-05-12T15:19:14.030Z,3.38
2023-05-12T15:21:40.842Z,3.05
2023-05-12T15:24:07.608Z,3.15
2023-05-12T15:26:35.191Z,3.55
2023-05-12T15:29:03.548Z,3.10
2023-05-12T15:31:30.315Z,2.90
2023-05-12T15:33:57.531Z,3.30
2023-05-12T15:36:24.214Z,3.28
2023-05-12T15:38:50.852Z,2.92
2023-05-12T15:41:17.533Z,3.22
2023-05-12T15:43:44.247Z,2.92
2023-05-12T15:46:11.788Z,3.08
2023-05-12T15:48:39.383Z,2.67
2023-05-12T15:51:06.518Z,3.15
2023-05-12T15:53:33.222Z,2.88
2023-05-12T15:56:04.161Z,3.60
2023-05-12T15:58:31.397Z,3.25
2023-05-12T16:00:58.190Z,3.03
2023-05-12T16:03:24.928Z,3.33
2023-05-12T16:05:52.099Z,2.97
2023-05-12T16:08:18.878Z,3.60
2023-05-12T16:10:45.598Z,3.10
2023-05-12T16:13:12.255Z,2.70
2023-05-12T16:15:38.862Z,3.38
2023-05-12T16:18:09.106Z,3.50
2023-05-12T16:20:37.627Z,3.00
2023-05-12T16:23:04.784Z,3.35
2023-05-12T16:25:31.415Z,2.90
2023-05-12T16:27:58.111Z,3.00
2023-05-12T16:30:24.827Z,2.80
2023-05-12T16:32:51.484Z,3.08
2023-05-12T16:35:18.264Z,2.97
2023-05-12T16:37:44.973Z,2.50
2023-05-12T16:40:12.196Z,2.75
2023-05-12T16:42:38.835Z,2.95
2023-05-12T16:45:06.481Z,2.85
2023-05-12T16:47:33.072Z,3.03
2023-05-12T16:49:59.936Z,3.28
2023-05-12T16:52:26.841Z,2.65
2023-05-12T16:54:53.481Z,2.88
2023-05-12T16:57:20.990Z,2.80
2023-05-12T16:59:50.314Z,2.60
2023-05-12T17:02:17.133Z,2.78
2023-05-12T17:04:44.667Z,2.65
2023-05-12T17:07:11.296Z,2.70
2023-05-12T17:09:37.929Z,2.95
2023-05-12T17:12:05.074Z,2.83
2023-05-12T17:14:31.660Z,2.50
2023-05-12T17:16:58.316Z,2.80
2023-05-12T17:19:25.028Z,2.65
2023-05-12T17:21:52.117Z,2.60
2023-05-12T17:24:18.803Z,2.67
2023-05-12T17:26:45.418Z,2.38
2023-05-12T17:29:12.112Z,2.50
2023-05-12T17:31:38.955Z,2.67
2023-05-12T17:34:05.788Z,2.55
2023-05-12T17:36:33.047Z,2.65
2023-05-12T17:39:00.040Z,2.22
2023-05-12T17:41:28.994Z,2.40
2023-05-12T17:43:55.915Z,2.80
2023-05-12T17:46:23.227Z,2.20
2023-05-12T17:48:49.963Z,2.58
2023-05-12T17:51:17.071Z,2.90
2023-05-12T17:53:45.479Z,2.50
2023-05-12T17:56:12.415Z,2.13
2023-05-12T17:58:39.241Z,2.38
2023-05-12T18:01:05.892Z,2.35
2023-05-12T18:03:32.697Z,2.22
2023-05-12T18:05:59.446Z,2.47
2023-05-12T18:08:27.239Z,2.30
2023-05-12T18:10:53.925Z,2.60
2023-05-12T18:13:20.552Z,2.22
2023-05-12T18:15:49.117Z,2.10
2023-05-12T18:18:15.807Z,2.60
2023-05-12T18:20:42.491Z,2.35
2023-05-12T18:23:09.245Z,2.60
2023-05-12T18:25:36.033Z,2.40
2023-05-12T18:28:02.670Z,2.58
2023-05-12T18:30:29.346Z,2.70
2023-05-12T18:32:55.958Z,2.53
2023-05-12T18:35:23.217Z,2.63
2023-05-12T18:37:50.120Z,2.87
2023-05-12T18:40:16.956Z,2.97
2023-05-12T18:42:43.862Z,3.00
2023-05-12T18:45:11.103Z,2.65
2023-05-12T18:47:38.002Z,3.25
2023-05-12T18:50:05.381Z,3.17
2023-05-12T18:52:31.941Z,3.22
2023-05-12T18:54:58.490Z,3.05
2023-05-12T18:57:25.109Z,3.85
2023-05-12T18:59:51.710Z,3.45
2023-05-12T19:02:18.282Z,3.58
2023-05-12T19:04:44.968Z,3.35
2023-05-12T19:07:15.315Z,3.25
2023-05-12T19:09:43.108Z,3.22
2023-05-12T19:12:11.708Z,3.35
2023-05-12T19:14:39.457Z,3.00
2023-05-12T19:17:07.176Z,2.83
2023-05-12T19:19:33.768Z,3.22
2023-05-12T19:22:00.638Z,3.15
2023-05-12T19:24:27.278Z,3.10
2023-05-12T19:26:53.942Z,2.90
2023-05-12T19:29:20.904Z,2.90
2023-05-12T19:31:47.562Z,3.10
2023-05-12T19:34:14.241Z,2.95
2023-05-12T19:36:40.905Z,3.20
2023-05-12T19:39:07.460Z,3.30
2023-05-12T19:41:34.062Z,3.25
2023-05-12T19:44:00.623Z,3.45
2023-05-12T19:46:27.426Z,3.33
2023-05-12T19:48:53.976Z,3.13
2023-05-12T19:51:20.595Z,3.75
2023-05-12T19:53:47.148Z,3.72
2023-05-12T19:56:13.759Z,3.42
2023-05-12T19:58:40.303Z,3.90
2023-05-12T20:01:06.954Z,3.95
2023-05-12T20:03:33.612Z,3.40
2023-05-12T20:06:00.214Z,3.40
2023-05-12T20:08:26.814Z,3.42
2023-05-12T20:10:53.456Z,3.50
2023-05-12T20:13:20.056Z,3.10
2023-05-12T20:15:46.806Z,3.28
2023-05-12T20:18:15.553Z,3.53
2023-05-12T20:20:43.128Z,3.10
2023-05-12T20:23:09.879Z,3.27
2023-05-12T20:25:36.746Z,2.90
2023-05-12T20:28:03.648Z,2.95
2023-05-12T20:30:30.224Z,2.95
2023-05-12T20:32:56.882Z,3.03
2023-05-12T20:35:23.908Z,3.13
2023-05-12T20:37:50.731Z,3.30
2023-05-12T20:40:17.459Z,2.83
2023-05-12T20:42:46.011Z,3.35
2023-05-12T20:47:39.763Z,3.25
2023-05-12T20:50:07.898Z,3.22
2023-05-12T20:52:38.894Z,3.42
2023-05-12T20:55:06.873Z,3.13
2023-05-12T20:57:33.476Z,3.40
2023-05-12T21:00:00.120Z,4.20
2023-05-12T21:02:27.991Z,3.50
2023-05-12T21:07:21.750Z,3.20
2023-05-12T21:09:48.368Z,3.35
2023-05-12T21:12:15.035Z,3.90
2023-05-12T21:14:42.652Z,3.53
2023-05-12T21:17:10.205Z,3.70
2023-05-12T21:19:37.956Z,4.17
2023-05-12T21:22:05.699Z,3.78
2023-05-12T21:24:32.958Z,3.97
2023-05-12T21:27:02.278Z,3.65
2023-05-12T21:29:29.049Z,3.80
2023-05-12T21:31:55.753Z,3.80
2023-05-12T21:34:22.385Z,3.80
2023-05-12T21:36:48.994Z,3.58
2023-05-12T21:39:16.234Z,3.90
2023-05-12T21:41:42.906Z,4.20
2023-05-12T21:44:11.187Z,3.83
2023-05-12T21:46:38.202Z,3.75
2023-05-12T21:49:04.920Z,3.40
2023-05-12T21:51:33.185Z,3.38
2023-05-12T21:54:00.258Z,3.92
2023-05-12T21:56:26.851Z,3.45
2023-05-12T21:58:53.506Z,3.67
2023-05-12T22:01:20.290Z,3.40
2023-05-12T22:03:47.070Z,4.25
2023-05-12T22:06:13.783Z,4.15
2023-05-12T22:08:40.419Z,3.90
2023-05-12T22:11:07.090Z,3.88
2023-05-12T22:13:33.791Z,4.47
2023-05-12T22:16:00.430Z,3.85
2023-05-12T22:18:27.505Z,4.00
2023-05-12T22:20:54.223Z,3.60
2023-05-12T22:23:21.098Z,4.03
2023-05-12T22:25:47.701Z,3.92
2023-05-12T22:28:14.350Z,3.92
2023-05-12T22:30:41.980Z,4.00
2023-05-12T22:33:08.752Z,3.80
2023-05-12T22:35:35.431Z,4.13
2023-05-12T22:38:02.105Z,4.22
2023-05-12T22:40:29.206Z,4.35
2023-05-12T22:42:55.781Z,4.05
2023-05-12T22:45:22.344Z,3.90
2023-05-12T22:47:49.001Z,4.13
2023-05-12T22:50:16.100Z,4.25
2023-05-12T22:52:42.973Z,4.30
2023-05-12T22:55:10.133Z,4.10
2023-05-12T22:57:38.626Z,3.80
2023-05-12T23:02:32.597Z,4.10
2023-05-12T23:04:59.247Z,3.53
2023-05-12T23:07:26.052Z,3.80
2023-05-12T23:09:52.611Z,3.70
2023-05-12T23:12:19.198Z,3.97
2023-05-12T23:14:45.771Z,3.92
2023-05-12T23:17:12.365Z,3.83
2023-05-12T23:19:40.186Z,4.55
2023-05-12T23:22:06.784Z,4.00
2023-05-12T23:24:34.175Z,3.50
2023-05-12T23:27:00.793Z,3.78
2023-05-12T23:29:27.561Z,3.70
2023-05-12T23:31:54.232Z,3.58
2023-05-12T23:34:21.020Z,3.50
2023-05-12T23:36:47.583Z,3.40
2023-05-12T23:39:14.276Z,3.78
2023-05-12T23:41:40.887Z,3.30
2023-05-12T23:44:07.444Z,3.13
2023-05-12T23:46:34.029Z,3.67
2023-05-12T23:49:00.711Z,3.50
2023-05-12T23:51:28.540Z,4.10
2023-05-12T23:53:55.479Z,3.60
2023-05-12T23:56:22.396Z,2.97
2023-05-12T23:58:49.307Z,3.10
